Time;durP1;ratioP1;P1;durP2;ratioP2;P2;SDS_P1;SDS_P2;PMS_P1;PMS_P2;Temp;Humidity;BMP_temperature;BMP_pressure;BME280_temperature;BME280_humidity;BME280_pressure;Samples;Min_cycle;Max_cycle;Signal;HPM_P1;HPM_P2
2022/11/27 00:01:23;;;;;;;265.23;175.60;;;;;;;7.63;100.00;102579.00;4993308;28;20431;-47
2022/11/27 00:03:51;;;;;;;318.40;182.83;;;;;;;7.63;100.00;102581.66;4993858;28;20498;-48
2022/11/27 00:06:22;;;;;;;283.67;181.83;;;;;;;7.65;100.00;102577.06;4993366;28;20450;-50
2022/11/27 00:08:50;;;;;;;252.70;178.07;;;;;;;7.66;100.00;102585.88;4993197;28;20445;-47
2022/11/27 00:11:19;;;;;;;258.50;177.17;;;;;;;7.66;100.00;102596.50;4993448;28;20482;-47
2022/11/27 00:13:47;;;;;;;250.00;176.00;;;;;;;7.65;100.00;102581.53;4993372;28;20442;-46
2022/11/27 00:16:16;;;;;;;269.27;175.87;;;;;;;7.66;100.00;102583.22;4993781;28;20450;-47
2022/11/27 00:18:44;;;;;;;265.67;175.77;;;;;;;7.65;100.00;102584.19;4993487;28;20497;-47
2022/11/27 00:21:15;;;;;;;260.57;166.13;;;;;;;7.67;100.00;102590.22;4993128;28;20919;-46
2022/11/27 00:23:44;;;;;;;211.10;169.03;;;;;;;7.67;100.00;102592.88;4992467;28;20528;-46
2022/11/27 00:26:12;;;;;;;219.10;166.77;;;;;;;7.68;100.00;102594.53;4993339;28;20865;-47
2022/11/27 00:28:40;;;;;;;227.73;166.80;;;;;;;7.68;100.00;102594.53;4993704;28;20434;-47
2022/11/27 00:31:12;;;;;;;231.00;170.23;;;;;;;7.68;100.00;102605.16;4992866;28;20477;-45
2022/11/27 00:33:40;;;;;;;221.37;165.33;;;;;;;7.69;100.00;102607.69;4992580;28;20465;-44
2022/11/27 00:36:09;;;;;;;199.30;158.10;;;;;;;7.71;100.00;102604.88;4993231;28;20465;-46
2022/11/27 00:38:37;;;;;;;195.40;157.37;;;;;;;7.69;100.00;102613.00;4993127;28;20811;-46
2022/11/27 00:41:08;;;;;;;190.27;158.73;;;;;;;7.71;100.00;102619.00;4992878;28;20430;-47
2022/11/27 00:43:37;;;;;;;205.43;159.33;;;;;;;7.70;100.00;102612.03;4992544;28;20464;-46
2022/11/27 00:46:11;;;;;;;218.67;156.03;;;;;;;7.70;100.00;102616.50;4992726;28;20445;-48
2022/11/27 00:48:40;;;;;;;203.10;157.20;;;;;;;7.71;100.00;102619.00;4993132;28;20445;-46
2022/11/27 00:51:11;;;;;;;196.27;154.03;;;;;;;7.73;100.00;102613.59;4992568;28;20555;-46
2022/11/27 00:53:39;;;;;;;188.03;147.80;;;;;;;7.72;100.00;102614.53;4992337;28;20458;-46
2022/11/27 00:56:08;;;;;;;170.17;142.80;;;;;;;7.73;100.00;102613.59;4973284;28;20458;-45
2022/11/27 00:58:36;;;;;;;202.37;151.13;;;;;;;7.73;100.00;102617.09;4973313;28;20476;-47
2022/11/27 01:01:07;;;;;;;206.63;149.00;;;;;;;7.70;100.00;102597.91;4973360;28;20434;-46
2022/11/27 01:03:35;;;;;;;192.03;144.40;;;;;;;7.71;100.00;102612.84;4973047;28;20471;-48
2022/11/27 01:06:03;;;;;;;188.33;142.40;;;;;;;7.68;100.00;102599.84;4974617;28;20438;-48
2022/11/27 01:08:31;;;;;;;151.37;135.00;;;;;;;7.68;100.00;102597.19;4992481;28;20920;-47
2022/11/27 01:10:59;;;;;;;154.33;137.40;;;;;;;7.68;100.00;102592.72;4992174;28;20438;-44
2022/11/27 01:13:30;;;;;;;156.77;135.43;;;;;;;7.67;100.00;102587.56;4992145;28;20498;-46
2022/11/27 01:15:59;;;;;;;168.07;132.00;;;;;;;7.69;100.00;102582.94;4992562;28;20935;-45
2022/11/27 01:18:27;;;;;;;178.17;134.67;;;;;;;7.66;100.00;102583.22;4992546;28;20438;-48
2022/11/27 01:20:55;;;;;;;150.33;125.40;;;;;;;7.66;100.00;102583.22;4992218;28;20939;-46
2022/11/27 01:23:23;;;;;;;161.60;126.90;;;;;;;7.66;100.00;102583.22;4992113;28;20470;-45
2022/11/27 01:25:52;;;;;;;154.40;125.60;;;;;;;7.65;100.00;102582.38;4992393;28;20954;-45
2022/11/27 01:28:20;;;;;;;144.77;118.57;;;;;;;7.66;100.00;102583.22;4992627;28;20930;-46
2022/11/27 01:30:50;;;;;;;157.57;121.10;;;;;;;7.63;100.00;102573.69;4992158;28;20931;-47
2022/11/27 01:33:18;;;;;;;162.53;116.23;;;;;;;7.63;100.00;102571.03;4991964;28;20540;-47
2022/11/27 01:35:54;;;;;;;151.47;119.27;;;;;;;7.60;100.00;102570.47;4992304;28;20438;-46
2022/11/27 01:38:21;;;;;;;127.90;112.10;;;;;;;7.59;100.00;102572.28;4992265;28;20545;-46
2022/11/27 01:40:49;;;;;;;135.40;111.73;;;;;;;7.59;100.00;102574.94;4992193;28;20950;-45
2022/11/27 01:43:17;;;;;;;147.20;116.03;;;;;;;7.59;100.00;102571.44;4991881;28;20476;-47
2022/11/27 01:45:45;;;;;;;139.20;109.77;;;;;;;7.56;100.00;102577.00;4992449;28;21002;-46
2022/11/27 01:48:14;;;;;;;141.53;105.63;;;;;;;7.55;100.00;102581.50;4992306;28;20453;-46
2022/11/27 01:50:42;;;;;;;118.50;105.60;;;;;;;7.54;100.00;102577.16;4992068;28;20434;-44
2022/11/27 01:53:15;;;;;;;134.73;103.43;;;;;;;7.49;100.00;102579.38;4991461;28;20998;-44
2022/11/27 01:55:46;;;;;;;123.87;95.80;;;;;;;7.50;100.00;102574.88;4992637;28;20419;-45
2022/11/27 01:58:26;;;;;;;135.13;101.03;;;;;;;7.49;100.00;102578.53;4992416;28;20858;-47
2022/11/27 02:00:54;;;;;;;107.17;95.90;;;;;;;7.48;100.00;102564.41;5015321;22;20405;-46
2022/11/27 02:03:23;;;;;;;118.53;96.90;;;;;;;7.47;100.00;102564.53;4991378;28;20524;-46
2022/11/27 02:05:51;;;;;;;100.53;89.37;;;;;;;7.44;100.00;102565.63;4992033;28;20963;-46
2022/11/27 02:08:19;;;;;;;123.57;91.40;;;;;;;7.42;100.00;102567.59;4992080;28;20433;-46
2022/11/27 02:10:51;;;;;;;107.20;88.97;;;;;;;7.41;100.00;102568.53;4991585;28;20438;-49
2022/11/27 02:13:27;;;;;;;105.07;88.07;;;;;;;7.38;100.00;102560.84;4991343;28;20532;-44
2022/11/27 02:16:06;;;;;;;105.67;87.60;;;;;;;7.37;100.00;102553.88;4992010;28;20438;-47
2022/11/27 02:18:42;;;;;;;112.07;91.87;;;;;;;7.35;100.00;102555.00;4992030;28;20484;-48
2022/11/27 02:21:19;;;;;;;104.67;88.70;;;;;;;7.33;100.00;102544.50;4991449;28;20453;-51
2022/11/27 02:24:13;;;;;;;98.37;87.33;;;;;;;7.32;100.00;102553.41;4991485;28;20434;-46
2022/11/27 02:27:05;;;;;;;97.80;84.67;;;;;;;7.32;100.00;102549.94;4991896;28;20441;-45
2022/11/27 02:29:36;;;;;;;106.60;84.63;;;;;;;7.31;100.00;102551.75;4991788;28;20441;-50
2022/11/27 02:32:10;;;;;;;104.30;87.40;;;;;;;7.29;100.00;102543.06;4994357;28;20485;-50
2022/11/27 02:34:45;;;;;;;112.03;87.50;;;;;;;7.29;100.00;102543.06;4995318;28;20422;-46
2022/11/27 02:37:20;;;;;;;120.87;89.40;;;;;;;7.30;100.00;102550.06;4995392;28;20444;-46
2022/11/27 02:39:55;;;;;;;115.27;84.00;;;;;;;7.28;100.00;102552.00;4995242;28;20491;-47
2022/11/27 02:42:24;;;;;;;113.27;82.27;;;;;;;7.27;100.00;102552.13;4994490;28;20511;-47
2022/11/27 02:45:00;;;;;;;115.20;86.93;;;;;;;7.24;100.00;102553.22;4994901;28;20437;-46
2022/11/27 02:47:29;;;;;;;121.70;82.47;;;;;;;7.24;100.00;102546.13;4995214;28;20441;-46
2022/11/27 02:49:57;;;;;;;107.10;86.90;;;;;;;7.22;100.00;102541.91;4994989;28;20441;-50
2022/11/27 02:52:27;;;;;;;97.13;81.17;;;;;;;7.17;100.00;102544.94;4994149;28;20480;-48
2022/11/27 02:54:58;;;;;;;92.83;81.40;;;;;;;7.18;100.00;102537.84;4994747;28;20958;-48
2022/11/27 02:57:28;;;;;;;111.53;81.30;;;;;;;7.17;100.00;102530.84;4994666;28;20446;-50
2022/11/27 02:59:58;;;;;;;103.30;84.20;;;;;;;7.14;100.00;102536.41;4994903;28;20433;-46
2022/11/27 03:02:32;;;;;;;96.03;77.73;;;;;;;7.13;100.00;102535.59;4993889;28;20469;-46
2022/11/27 03:05:02;;;;;;;114.33;81.47;;;;;;;7.13;100.00;102529.44;4994761;28;20480;-45
2022/11/27 03:07:37;;;;;;;97.20;76.50;;;;;;;7.09;100.00;102541.28;4994652;28;20886;-46
2022/11/27 03:10:09;;;;;;;92.97;78.43;;;;;;;7.07;100.00;102533.47;4994616;28;20433;-46
2022/11/27 03:12:37;;;;;;;102.97;80.13;;;;;;;7.06;100.00;102534.41;4993689;28;20999;-50
2022/11/27 03:15:07;;;;;;;107.90;81.27;;;;;;;7.05;100.00;102529.22;4994572;28;20437;-48
2022/11/27 03:17:49;;;;;;;105.87;80.43;;;;;;;7.04;100.00;102535.53;4994553;28;20442;-45
2022/11/27 03:20:23;;;;;;;104.63;81.10;;;;;;;7.03;100.00;102533.84;4994258;28;20441;-45
2022/11/27 03:22:52;;;;;;;105.87;79.20;;;;;;;7.01;100.00;102536.63;4993838;28;20775;-48
2022/11/27 03:25:20;;;;;;;104.63;80.63;;;;;;;6.96;100.00;102530.84;4994496;28;20445;-47
2022/11/27 03:27:54;;;;;;;95.90;78.67;;;;;;;6.96;100.00;102530.84;4994284;28;20441;-46
2022/11/27 03:30:23;;;;;;;101.03;82.10;;;;;;;6.93;100.00;102523.16;4994456;28;20429;-50
2022/11/27 03:32:51;;;;;;;94.90;81.23;;;;;;;6.90;100.00;102522.59;4993139;28;20546;-47
2022/11/27 03:35:23;;;;;;;124.97;87.30;;;;;;;6.84;100.00;102518.63;4994060;28;20430;-45
2022/11/27 03:37:51;;;;;;;103.93;86.53;;;;;;;6.78;100.00;102511.19;4994185;28;20450;-45
2022/11/27 03:40:20;;;;;;;96.47;80.97;;;;;;;6.76;100.00;102510.47;4994095;28;20430;-46
2022/11/27 03:42:58;;;;;;;106.57;85.57;;;;;;;6.72;100.00;102511.69;4992251;28;20462;-46
2022/11/27 03:45:35;;;;;;;95.93;81.17;;;;;;;6.69;100.00;102519.91;4993797;28;20434;-47
2022/11/27 03:48:18;;;;;;;106.43;90.57;;;;;;;6.63;100.00;102508.00;4993991;28;20442;-46
2022/11/27 03:50:59;;;;;;;110.73;86.57;;;;;;;6.57;100.00;102513.00;4993524;28;20453;-54
2022/11/27 03:53:34;;;;;;;104.23;92.10;;;;;;;6.54;100.00;102511.44;4992993;28;20485;-47
2022/11/27 03:56:10;;;;;;;97.03;86.83;;;;;;;6.49;100.00;102518.09;4993942;28;20438;-50
2022/11/27 03:58:41;;;;;;;92.17;83.00;;;;;;;6.44;100.00;102514.97;4993827;28;20433;-45
2022/11/27 04:01:13;;;;;;;104.63;85.90;;;;;;;6.40;100.00;102517.03;4993360;28;20469;-51
2022/11/27 04:03:40;;;;;;;101.10;85.00;;;;;;;6.34;100.00;102501.63;4993293;28;20470;-48
2022/11/27 04:06:08;;;;;;;103.27;86.03;;;;;;;6.30;100.00;102502.84;4993397;28;20440;-56
2022/11/27 04:08:36;;;;;;;101.93;84.93;;;;;;;6.25;100.00;102507.69;4993423;28;20501;-51
2022/11/27 04:11:03;;;;;;;90.40;81.33;;;;;;;6.22;100.00;102507.09;4993347;28;20454;-53
2022/11/27 04:13:31;;;;;;;101.17;90.67;;;;;;;6.17;100.00;102507.50;4992822;28;20478;-51
2022/11/27 04:16:00;;;;;;;94.37;84.97;;;;;;;6.11;100.00;102508.00;4993279;28;20998;-48
2022/11/27 04:18:29;;;;;;;93.47;83.90;;;;;;;6.06;100.00;102508.34;4993144;28;20434;-51
2022/11/27 04:20:57;;;;;;;95.43;84.13;;;;;;;5.99;100.00;102519.56;4992912;28;20898;-49
2022/11/27 04:23:24;;;;;;;95.07;86.27;;;;;;;5.94;100.00;102516.47;4992783;28;20513;-50
2022/11/27 04:25:52;;;;;;;95.27;87.53;;;;;;;5.88;100.00;102509.84;4993121;28;20965;-54
2022/11/27 04:28:20;;;;;;;99.40;89.60;;;;;;;5.81;100.00;102505.97;4993036;28;21006;-50
2022/11/27 04:30:52;;;;;;;104.53;94.13;;;;;;;5.76;100.00;102497.56;4992794;28;20437;-47
2022/11/27 04:33:20;;;;;;;104.20;94.53;;;;;;;5.73;100.00;102496.97;4992419;28;21042;-50
2022/11/27 04:35:50;;;;;;;101.53;92.70;;;;;;;5.69;100.00;102491.06;4993176;28;20796;-51
2022/11/27 04:38:18;;;;;;;102.80;93.73;;;;;;;5.65;100.00;102481.69;4992982;28;20444;-51
2022/11/27 04:40:45;;;;;;;106.63;97.20;;;;;;;5.61;100.00;102468.81;4992808;28;20434;-50
2022/11/27 04:43:13;;;;;;;99.83;91.03;;;;;;;5.57;100.00;102478.81;4992534;28;20469;-51
2022/11/27 04:45:42;;;;;;;108.17;98.37;;;;;;;5.52;100.00;102471.25;4992670;28;20430;-51
2022/11/27 04:48:10;;;;;;;107.73;98.70;;;;;;;5.49;100.00;102471.50;4992649;28;20449;-49
2022/11/27 04:50:38;;;;;;;105.97;96.73;;;;;;;5.45;100.00;102458.63;4992758;28;20804;-51
2022/11/27 04:53:07;;;;;;;106.47;96.90;;;;;;;5.43;100.00;102457.91;4991482;28;21029;-49
2022/11/27 04:55:34;;;;;;;109.27;99.23;;;;;;;5.39;100.00;102456.44;4992681;28;20500;-53
2022/11/27 04:58:02;;;;;;;107.10;97.53;;;;;;;5.34;100.00;102450.69;4992619;28;20433;-54
2022/11/27 05:00:29;;;;;;;107.13;97.13;;;;;;;5.29;100.00;102445.75;4992388;28;20469;-47
2022/11/27 05:02:57;;;;;;;105.90;97.10;;;;;;;5.27;100.00;102445.03;4991757;28;20470;-53
2022/11/27 05:05:25;;;;;;;103.33;95.50;;;;;;;5.24;100.00;102433.84;4992658;28;20816;-49
2022/11/27 05:07:52;;;;;;;105.80;95.67;;;;;;;5.20;100.00;102438.53;4992578;28;20442;-50
2022/11/27 05:10:21;;;;;;;104.33;96.03;;;;;;;5.17;100.00;102430.84;4992609;28;20442;-51
2022/11/27 05:12:49;;;;;;;103.17;95.80;;;;;;;5.15;100.00;102421.34;4991732;28;20474;-52
2022/11/27 05:15:17;;;;;;;100.27;93.17;;;;;;;5.13;100.00;102418.00;4992496;28;20477;-51
2022/11/27 05:17:44;;;;;;;99.93;92.97;;;;;;;5.09;100.00;102406.81;4992530;28;20438;-51
2022/11/27 05:20:12;;;;;;;101.13;92.87;;;;;;;5.08;100.00;102414.88;4992366;28;20438;-51
2022/11/27 05:22:40;;;;;;;100.70;93.90;;;;;;;5.06;100.00;102408.84;4991589;28;20482;-50
2022/11/27 05:25:08;;;;;;;102.83;93.97;;;;;;;5.04;100.00;102409.00;4992510;28;20473;-52
2022/11/27 05:27:37;;;;;;;98.00;90.80;;;;;;;5.01;100.00;102415.38;4992131;28;20442;-50
2022/11/27 05:30:06;;;;;;;97.20;90.00;;;;;;;4.98;100.00;102412.97;4992355;28;20461;-51
2022/11/27 05:32:34;;;;;;;98.93;92.03;;;;;;;4.94;100.00;102405.38;4991709;28;20474;-46
2022/11/27 05:35:01;;;;;;;98.93;91.50;;;;;;;4.89;100.00;102408.38;4992237;28;20472;-46
2022/11/27 05:37:29;;;;;;;97.13;90.03;;;;;;;4.88;100.00;102425.19;4992206;28;20445;-46
2022/11/27 05:39:56;;;;;;;98.53;90.73;;;;;;;4.84;100.00;102418.44;4992110;28;20444;-50
2022/11/27 05:42:24;;;;;;;96.90;89.40;;;;;;;4.82;100.00;102415.09;4991613;28;20469;-53
2022/11/27 05:44:53;;;;;;;92.67;86.33;;;;;;;4.80;100.00;102410.91;4992279;28;20426;-51
2022/11/27 05:47:25;;;;;;;94.17;87.37;;;;;;;4.75;100.00;102418.34;4992250;28;20529;-51
2022/11/27 05:49:52;;;;;;;92.77;86.20;;;;;;;4.71;100.00;102425.66;4992132;28;20441;-51
2022/11/27 05:52:20;;;;;;;93.10;86.90;;;;;;;4.69;100.00;102429.38;4985770;28;20529;-49
2022/11/27 05:54:48;;;;;;;92.53;86.13;;;;;;;4.67;100.00;102418.06;4989767;28;20477;-47
2022/11/27 05:57:15;;;;;;;96.07;88.67;;;;;;;4.65;100.00;102420.00;4992055;28;20441;-51
2022/11/27 05:59:43;;;;;;;97.27;89.50;;;;;;;4.63;100.00;102427.22;4992092;28;20430;-51
2022/11/27 06:02:12;;;;;;;96.40;89.17;;;;;;;4.61;100.00;102432.59;4991292;28;20466;-49
2022/11/27 06:04:48;;;;;;;95.77;88.57;;;;;;;4.56;100.00;102426.84;4991902;28;20529;-50
2022/11/27 06:07:15;;;;;;;97.10;90.80;;;;;;;4.53;100.00;102432.34;4995997;28;20445;-49
2022/11/27 06:09:43;;;;;;;96.40;89.87;;;;;;;4.51;100.00;102439.53;4996051;28;20438;-49
2022/11/27 06:12:10;;;;;;;97.27;89.57;;;;;;;4.48;100.00;102419.47;4995148;28;20492;-46
2022/11/27 06:14:38;;;;;;;96.20;89.80;;;;;;;4.46;100.00;102426.69;4995726;28;20482;-48
2022/11/27 06:17:06;;;;;;;104.50;96.97;;;;;;;4.44;100.00;102415.41;4995662;28;20532;-47
2022/11/27 06:19:35;;;;;;;95.10;88.60;;;;;;;4.40;100.00;102408.66;4995488;28;20434;-48
2022/11/27 06:22:03;;;;;;;99.60;92.87;;;;;;;4.37;100.00;102408.03;4994915;28;20474;-45
2022/11/27 06:24:30;;;;;;;101.90;95.10;;;;;;;4.35;100.00;102412.59;4995385;28;20442;-47
2022/11/27 06:26:58;;;;;;;99.03;92.77;;;;;;;4.32;100.00;102412.84;4995387;28;20441;-46
2022/11/27 06:29:25;;;;;;;101.27;94.80;;;;;;;4.28;100.00;102409.56;4995488;28;20434;-45
2022/11/27 06:31:53;;;;;;;101.40;93.43;;;;;;;4.26;100.00;102413.31;4994550;28;20473;-46
2022/11/27 06:34:21;;;;;;;102.00;94.80;;;;;;;4.23;100.00;102400.31;4995349;28;20532;-49
2022/11/27 06:36:50;;;;;;;108.70;100.40;;;;;;;4.21;100.00;102407.53;4995422;28;20843;-52
2022/11/27 06:39:17;;;;;;;101.83;95.20;;;;;;;4.19;100.00;102407.63;4995282;28;20430;-47
2022/11/27 06:41:45;;;;;;;99.77;93.17;;;;;;;4.17;100.00;102404.28;4994362;28;20955;-45
2022/11/27 06:44:13;;;;;;;96.80;90.50;;;;;;;4.16;100.00;102393.81;4995071;28;20437;-48
2022/11/27 06:46:40;;;;;;;102.37;95.13;;;;;;;4.15;100.00;102394.78;4994917;28;20441;-50
2022/11/27 06:49:09;;;;;;;96.07;89.67;;;;;;;4.13;100.00;102391.41;4995171;28;20433;-44
2022/11/27 06:51:36;;;;;;;96.00;89.70;;;;;;;4.13;100.00;102394.88;4994218;28;20910;-52
2022/11/27 06:54:05;;;;;;;97.37;91.07;;;;;;;4.12;100.00;102390.56;4986725;28;20426;-45
2022/11/27 06:56:33;;;;;;;95.57;89.50;;;;;;;4.13;100.00;102404.59;4994923;28;20430;-49
2022/11/27 06:59:01;;;;;;;96.17;90.00;;;;;;;4.11;100.00;102402.09;4991706;28;20966;-52
2022/11/27 07:01:31;;;;;;;102.27;95.53;;;;;;;4.10;100.00;102397.75;4993880;28;20466;-48
2022/11/27 07:03:59;;;;;;;101.07;93.57;;;;;;;4.10;100.00;102391.63;4994808;28;20434;-50
2022/11/27 07:06:27;;;;;;;101.20;94.90;;;;;;;4.09;100.00;102385.50;4993761;28;20449;-52
2022/11/27 07:08:55;;;;;;;100.73;93.67;;;;;;;4.08;100.00;102388.28;4994182;28;20477;-48
2022/11/27 07:11:27;;;;;;;98.13;91.80;;;;;;;4.07;100.00;102391.84;4993654;28;20472;-48
2022/11/27 07:13:56;;;;;;;101.33;94.93;;;;;;;4.05;100.00;102386.69;4993748;28;20426;-49
2022/11/27 07:16:25;;;;;;;96.00;89.77;;;;;;;4.03;100.00;102386.00;4994017;28;20469;-49
2022/11/27 07:18:54;;;;;;;97.10;90.77;;;;;;;4.02;100.00;102379.00;4994324;28;20460;-49
2022/11/27 07:21:22;;;;;;;95.17;88.70;;;;;;;4.04;100.00;102387.66;4993515;28;20454;-49
2022/11/27 07:23:50;;;;;;;98.07;91.77;;;;;;;4.04;100.00;102389.44;4994217;28;20434;-47
2022/11/27 07:26:20;;;;;;;105.27;96.90;;;;;;;4.04;100.00;102384.16;4994019;28;20430;-48
2022/11/27 07:28:49;;;;;;;91.77;85.87;;;;;;;4.05;100.00;102388.50;4993564;28;20437;-48
2022/11/27 07:31:20;;;;;;;90.87;84.77;;;;;;;4.08;100.00;102390.91;4993740;28;20912;-48
2022/11/27 07:33:48;;;;;;;90.20;83.80;;;;;;;4.09;100.00;102393.41;4993874;28;20450;-49
2022/11/27 07:36:17;;;;;;;87.90;81.90;;;;;;;4.11;100.00;102393.31;4993937;28;20528;-47
2022/11/27 07:38:45;;;;;;;87.93;82.73;;;;;;;4.12;100.00;102379.19;4993771;28;20489;-50
2022/11/27 07:41:14;;;;;;;90.63;85.03;;;;;;;4.14;100.00;102379.88;4993709;28;20501;-50
2022/11/27 07:43:43;;;;;;;84.50;79.00;;;;;;;4.14;100.00;102375.47;4968393;28;20524;-48
2022/11/27 07:46:14;;;;;;;81.70;75.77;;;;;;;4.15;100.00;102363.91;4993886;28;20422;-52
2022/11/27 07:48:42;;;;;;;79.03;73.63;;;;;;;4.18;100.00;102365.50;4993882;28;20445;-50
2022/11/27 07:51:11;;;;;;;78.33;73.20;;;;;;;4.21;100.00;102371.38;4993339;28;20449;-50
2022/11/27 07:53:40;;;;;;;82.93;77.20;;;;;;;4.22;100.00;102369.59;4962114;28;20524;-47
2022/11/27 07:56:10;;;;;;;81.30;75.73;;;;;;;4.27;100.00;102370.09;4950539;28;20463;-53
2022/11/27 07:58:37;;;;;;;75.67;70.23;;;;;;;4.28;100.00;102362.03;4974152;28;20944;-47
2022/11/27 08:01:07;;;;;;;82.60;76.23;;;;;;;4.31;100.00;102355.69;4973714;28;20525;-51
2022/11/27 08:03:37;;;;;;;79.33;73.30;;;;;;;4.35;100.00;102342.16;4973916;28;20797;-51
2022/11/27 08:06:05;;;;;;;73.50;68.30;;;;;;;4.40;100.00;102332.06;4973754;28;20551;-47
2022/11/27 08:08:33;;;;;;;73.77;67.20;;;;;;;4.42;100.00;102326.69;4973948;28;20925;-46
2022/11/27 08:11:01;;;;;;;76.33;69.63;;;;;;;4.47;100.00;102312.16;4973325;28;20458;-46
2022/11/27 08:13:28;;;;;;;67.40;61.10;;;;;;;4.55;100.00;102305.41;4974065;28;20718;-50
2022/11/27 08:15:59;;;;;;;63.27;57.60;;;;;;;4.65;100.00;102314.31;4973420;28;20478;-48
2022/11/27 08:18:26;;;;;;;60.80;55.67;;;;;;;4.74;100.00;102325.00;4973711;28;20442;-47
2022/11/27 08:20:55;;;;;;;57.83;53.43;;;;;;;4.83;100.00;102321.63;4973328;28;20486;-49
2022/11/27 08:23:23;;;;;;;55.47;50.97;;;;;;;4.91;100.00;102311.28;4973670;28;20435;-47
2022/11/27 08:25:50;;;;;;;52.60;48.10;;;;;;;5.03;100.00;102309.47;4972807;28;20466;-48
2022/11/27 08:28:18;;;;;;;49.67;45.80;;;;;;;5.11;100.00;102314.97;4973019;28;20427;-47
2022/11/27 08:30:46;;;;;;;48.77;44.40;;;;;;;5.14;100.00;102321.84;4973063;28;20442;-48
2022/11/27 08:33:13;;;;;;;48.70;44.87;;;;;;;5.18;100.00;102331.19;4973713;28;20485;-47
2022/11/27 08:35:48;;;;;;;49.77;45.73;;;;;;;5.18;100.00;102329.41;4972864;28;20486;-49
2022/11/27 08:38:17;;;;;;;50.10;46.00;;;;;;;5.27;100.00;102333.94;4973250;28;20431;-48
2022/11/27 08:40:45;;;;;;;49.60;45.43;;;;;;;5.31;100.00;102337.19;4972719;28;20439;-43
2022/11/27 08:43:12;;;;;;;50.83;46.80;;;;;;;5.36;100.00;102332.38;4973270;28;20427;-52
2022/11/27 08:45:40;;;;;;;50.90;46.57;;;;;;;5.35;100.00;102331.53;4972910;28;20837;-49
2022/11/27 08:48:08;;;;;;;50.60;46.63;;;;;;;5.37;100.00;102315.53;4973237;28;20439;-47
2022/11/27 08:50:37;;;;;;;52.60;48.30;;;;;;;5.34;100.00;102321.06;4973305;28;20438;-48
2022/11/27 08:53:04;;;;;;;52.20;47.83;;;;;;;5.33;100.00;102322.88;4987657;28;20434;-47
2022/11/27 08:55:33;;;;;;;52.40;47.73;;;;;;;5.30;100.00;102324.91;4991506;28;20477;-48
2022/11/27 08:58:02;;;;;;;52.10;47.80;;;;;;;5.31;100.00;102321.31;4992103;28;20437;-48
2022/11/27 09:00:30;;;;;;;52.20;47.50;;;;;;;5.31;100.00;102316.03;4992092;28;20433;-50
2022/11/27 09:02:59;;;;;;;50.47;46.37;;;;;;;5.33;100.00;102324.66;4989743;28;20542;-48
2022/11/27 09:05:27;;;;;;;53.57;49.40;;;;;;;5.33;100.00;102324.66;4990103;28;20465;-47
2022/11/27 09:07:55;;;;;;;51.27;46.67;;;;;;;5.41;100.00;102317.78;4991521;28;20430;-46
2022/11/27 09:10:23;;;;;;;51.20;47.27;;;;;;;5.47;100.00;102313.81;4990801;28;20951;-49
2022/11/27 09:12:52;;;;;;;52.87;48.40;;;;;;;5.54;100.00;102305.25;4991602;28;20482;-48
2022/11/27 09:15:19;;;;;;;50.80;46.60;;;;;;;5.55;100.00;102300.81;4991334;28;20528;-46
2022/11/27 09:17:47;;;;;;;51.10;47.17;;;;;;;5.51;100.00;102292.28;4991276;28;20442;-48
2022/11/27 09:20:14;;;;;;;48.20;44.20;;;;;;;5.55;100.00;102295.50;4990738;28;20445;-50
2022/11/27 09:22:42;;;;;;;50.90;46.70;;;;;;;5.67;100.00;102297.16;4991086;28;20449;-50
2022/11/27 09:25:10;;;;;;;50.13;46.03;;;;;;;5.72;100.00;102294.09;4991456;28;20470;-52
2022/11/27 09:27:38;;;;;;;52.00;47.70;;;;;;;5.81;100.00;102298.63;4991300;28;20808;-51
2022/11/27 09:30:08;;;;;;;51.10;47.00;;;;;;;5.86;100.00;102305.25;4991041;28;20449;-51
2022/11/27 09:32:36;;;;;;;53.43;49.40;;;;;;;6.03;100.00;102295.91;4991151;28;20454;-46
2022/11/27 09:35:05;;;;;;;54.27;49.87;;;;;;;6.07;100.00;102300.81;4990883;28;20469;-47
2022/11/27 09:37:32;;;;;;;51.13;46.80;;;;;;;6.08;100.00;102291.06;4990509;28;20484;-44
2022/11/27 09:40:00;;;;;;;52.10;47.80;;;;;;;5.98;100.00;102293.63;4990778;28;20497;-45
2022/11/27 09:42:37;;;;;;;51.20;47.10;;;;;;;5.95;100.00;102301.84;4994978;28;20529;-46
2022/11/27 09:45:13;;;;;;;51.90;47.90;;;;;;;5.95;100.00;102301.00;4995345;28;20518;-46
2022/11/27 09:47:44;;;;;;;52.37;47.87;;;;;;;5.97;100.00;102291.13;4994749;28;20492;-46
2022/11/27 09:50:17;;;;;;;51.87;47.77;;;;;;;5.92;100.00;102304.75;4994642;28;20819;-46
2022/11/27 09:52:49;;;;;;;51.27;47.20;;;;;;;6.00;100.00;102306.75;4991833;28;20477;-45
2022/11/27 09:55:23;;;;;;;53.80;49.47;;;;;;;6.01;100.00;102296.03;4995296;28;20465;-45
2022/11/27 09:57:59;;;;;;;52.47;47.97;;;;;;;6.04;100.00;102286.97;4994441;28;20433;-46
2022/11/27 10:00:28;;;;;;;52.90;49.00;;;;;;;6.04;100.00;102287.81;4994039;28;20926;-44
2022/11/27 10:02:56;;;;;;;55.13;50.10;;;;;;;6.10;100.00;102295.25;4994787;28;20469;-47
2022/11/27 10:05:26;;;;;;;56.50;51.30;;;;;;;6.12;100.00;102274.75;4994950;28;20486;-50
2022/11/27 10:08:10;;;;;;;53.03;48.40;;;;;;;6.13;100.00;102268.50;4980513;28;20496;-48
2022/11/27 10:10:43;;;;;;;54.23;49.70;;;;;;;6.20;100.00;102273.28;4994032;28;20889;-50
2022/11/27 10:13:23;;;;;;;52.73;48.23;;;;;;;6.25;100.00;102263.13;4994923;28;20433;-45
2022/11/27 10:15:56;;;;;;;51.90;47.93;;;;;;;6.29;100.00;102254.78;4994403;28;20481;-45
2022/11/27 10:18:31;;;;;;;54.07;49.63;;;;;;;6.28;100.00;102257.56;4994205;28;20438;-44
2022/11/27 10:21:07;;;;;;;52.80;48.63;;;;;;;6.20;100.00;102254.75;4994296;28;20465;-50
2022/11/27 10:23:45;;;;;;;54.17;49.47;;;;;;;6.21;100.00;102254.63;4994524;28;20437;-45
2022/11/27 10:26:18;;;;;;;54.83;49.90;;;;;;;6.21;100.00;102259.06;4994266;28;20469;-48
2022/11/27 10:28:53;;;;;;;53.33;49.10;;;;;;;6.22;100.00;102271.34;4993412;28;20434;-49
2022/11/27 10:31:32;;;;;;;52.07;47.60;;;;;;;6.28;100.00;102281.41;4993688;28;20874;-47
2022/11/27 10:34:04;;;;;;;52.23;48.10;;;;;;;6.27;100.00;102272.66;4994412;28;20967;-44
2022/11/27 10:36:36;;;;;;;52.80;48.80;;;;;;;6.33;100.00;102271.28;4994192;28;20532;-45
2022/11/27 10:39:07;;;;;;;55.30;50.73;;;;;;;6.40;100.00;102270.59;4993323;28;20497;-46
2022/11/27 10:41:41;;;;;;;52.60;48.60;;;;;;;6.40;100.00;102260.00;4994324;28;21172;-48
2022/11/27 10:44:26;;;;;;;53.43;48.87;;;;;;;6.42;100.00;102246.63;4994040;28;21160;-46
2022/11/27 10:47:01;;;;;;;54.33;49.90;;;;;;;6.43;100.00;102243.00;4993665;28;20489;-45
2022/11/27 10:49:29;;;;;;;53.63;49.43;;;;;;;6.47;100.00;102245.25;4992886;28;20437;-51
2022/11/27 10:51:56;;;;;;;51.13;47.20;;;;;;;6.49;100.00;102230.06;4993615;28;20809;-47
2022/11/27 10:54:27;;;;;;;53.07;48.73;;;;;;;6.47;100.00;102232.00;4995297;28;20496;-47
2022/11/27 10:57:14;;;;;;;54.17;49.67;;;;;;;6.42;100.00;102226.25;4994474;28;20847;-47
2022/11/27 10:59:46;;;;;;;55.53;51.00;;;;;;;6.43;100.00;102222.63;4994883;28;20517;-49
2022/11/27 11:02:30;;;;;;;54.13;49.83;;;;;;;6.31;100.00;102222.84;4994433;28;20470;-47
2022/11/27 11:04:57;;;;;;;54.10;50.00;;;;;;;6.24;100.00;102225.22;4994151;28;20516;-48
2022/11/27 11:07:55;;;;;;;62.00;56.30;;;;;;;6.22;100.00;102231.59;4994841;28;20437;-45
2022/11/27 12:05:05;;;;;;;59.47;54.17;;;;;;;6.18;100.00;102148.94;5098484;27;20583;-46
2022/11/27 12:07:45;;;;;;;54.93;50.33;;;;;;;6.20;100.00;102146.13;5069127;28;20771;-48
2022/11/27 12:10:24;;;;;;;55.80;51.40;;;;;;;6.24;100.00;102131.66;5076341;28;20440;-47
2022/11/27 12:13:02;;;;;;;55.43;51.10;;;;;;;6.27;100.00;102123.44;5088984;28;20422;-48